sensor_id;sensor_type;location;lat;lon;timestamp;P1;durP1;ratioP1;P2;durP2;ratioP2
21152;SDS011;10734;44.792;20.482;2024-01-07T00:01:47;18.60;;;7.40;;
21152;SDS011;10734;44.792;20.482;2024-01-07T00:04:15;14.70;;;7.22;;
21152;SDS011;10734;44.792;20.482;2024-01-07T00:06:42;13.68;;;7.20;;
21152;SDS011;10734;44.792;20.482;2024-01-07T00:09:10;18.42;;;8.27;;
21152;SDS011;10734;44.792;20.482;2024-01-07T00:11:36;17.63;;;7.53;;
21152;SDS011;10734;44.792;20.482;2024-01-07T00:14:03;16.45;;;7.65;;
21152;SDS011;10734;44.792;20.482;2024-01-07T00:16:30;18.63;;;8.10;;
21152;SDS011;10734;44.792;20.482;2024-01-07T00:19:14;16.27;;;7.35;;
21152;SDS011;10734;44.792;20.482;2024-01-07T00:21:41;16.75;;;6.88;;
21152;SDS011;10734;44.792;20.482;2024-01-07T00:24:08;19.77;;;7.43;;
21152;SDS011;10734;44.792;20.482;2024-01-07T00:26:35;14.85;;;7.72;;
21152;SDS011;10734;44.792;20.482;2024-01-07T00:29:01;17.27;;;8.10;;
21152;SDS011;10734;44.792;20.482;2024-01-07T00:31:28;19.35;;;7.68;;
21152;SDS011;10734;44.792;20.482;2024-01-07T00:33:55;15.93;;;7.05;;
21152;SDS011;10734;44.792;20.482;2024-01-07T00:36:22;14.45;;;7.05;;
21152;SDS011;10734;44.792;20.482;2024-01-07T00:38:49;12.43;;;7.18;;
21152;SDS011;10734;44.792;20.482;2024-01-07T00:41:15;12.75;;;6.78;;
21152;SDS011;10734;44.792;20.482;2024-01-07T00:43:42;16.25;;;7.15;;
21152;SDS011;10734;44.792;20.482;2024-01-07T00:46:09;14.02;;;6.93;;
21152;SDS011;10734;44.792;20.482;2024-01-07T00:48:38;20.75;;;6.70;;
21152;SDS011;10734;44.792;20.482;2024-01-07T00:51:05;15.43;;;6.05;;
21152;SDS011;10734;44.792;20.482;2024-01-07T00:53:32;16.92;;;7.45;;
21152;SDS011;10734;44.792;20.482;2024-01-07T00:55:59;19.00;;;7.55;;
21152;SDS011;10734;44.792;20.482;2024-01-07T00:58:26;19.95;;;7.72;;
21152;SDS011;10734;44.792;20.482;2024-01-07T01:00:52;17.88;;;7.82;;
21152;SDS011;10734;44.792;20.482;2024-01-07T01:03:20;19.65;;;7.50;;
21152;SDS011;10734;44.792;20.482;2024-01-07T01:06:14;18.92;;;7.32;;
21152;SDS011;10734;44.792;20.482;2024-01-07T01:08:41;13.98;;;6.72;;
21152;SDS011;10734;44.792;20.482;2024-01-07T01:11:11;15.15;;;7.22;;
21152;SDS011;10734;44.792;20.482;2024-01-07T01:13:37;20.33;;;7.10;;
21152;SDS011;10734;44.792;20.482;2024-01-07T01:16:04;15.20;;;6.88;;
21152;SDS011;10734;44.792;20.482;2024-01-07T01:21:30;15.80;;;6.47;;
21152;SDS011;10734;44.792;20.482;2024-01-07T01:23:56;18.23;;;7.07;;
21152;SDS011;10734;44.792;20.482;2024-01-07T01:26:23;13.25;;;6.80;;
21152;SDS011;10734;44.792;20.482;2024-01-07T01:28:50;16.13;;;6.82;;
21152;SDS011;10734;44.792;20.482;2024-01-07T01:31:16;13.73;;;7.10;;
21152;SDS011;10734;44.792;20.482;2024-01-07T01:36:36;20.25;;;7.18;;
21152;SDS011;10734;44.792;20.482;2024-01-07T01:39:03;19.15;;;7.40;;
21152;SDS011;10734;44.792;20.482;2024-01-07T01:41:29;14.95;;;6.85;;
21152;SDS011;10734;44.792;20.482;2024-01-07T01:43:57;15.57;;;7.35;;
21152;SDS011;10734;44.792;20.482;2024-01-07T01:46:23;16.92;;;6.63;;
21152;SDS011;10734;44.792;20.482;2024-01-07T01:48:56;10.52;;;5.95;;
21152;SDS011;10734;44.792;20.482;2024-01-07T01:51:23;17.13;;;7.38;;
21152;SDS011;10734;44.792;20.482;2024-01-07T01:53:50;16.73;;;6.97;;
21152;SDS011;10734;44.792;20.482;2024-01-07T01:56:17;23.60;;;8.00;;
21152;SDS011;10734;44.792;20.482;2024-01-07T01:58:44;11.45;;;5.72;;
21152;SDS011;10734;44.792;20.482;2024-01-07T02:01:11;12.90;;;5.97;;
21152;SDS011;10734;44.792;20.482;2024-01-07T02:07:00;16.88;;;6.97;;
21152;SDS011;10734;44.792;20.482;2024-01-07T02:09:27;14.57;;;6.57;;
21152;SDS011;10734;44.792;20.482;2024-01-07T02:12:03;11.30;;;6.05;;
21152;SDS011;10734;44.792;20.482;2024-01-07T02:14:30;11.52;;;5.95;;
21152;SDS011;10734;44.792;20.482;2024-01-07T02:16:57;12.57;;;5.45;;
21152;SDS011;10734;44.792;20.482;2024-01-07T02:22:12;15.52;;;5.88;;
21152;SDS011;10734;44.792;20.482;2024-01-07T02:24:38;12.45;;;5.72;;
21152;SDS011;10734;44.792;20.482;2024-01-07T02:27:05;12.88;;;5.82;;
21152;SDS011;10734;44.792;20.482;2024-01-07T02:29:32;11.23;;;5.47;;
21152;SDS011;10734;44.792;20.482;2024-01-07T02:31:59;11.68;;;5.53;;
21152;SDS011;10734;44.792;20.482;2024-01-07T02:34:25;11.93;;;5.78;;
21152;SDS011;10734;44.792;20.482;2024-01-07T02:36:52;12.90;;;6.00;;
21152;SDS011;10734;44.792;20.482;2024-01-07T02:39:18;14.10;;;6.30;;
21152;SDS011;10734;44.792;20.482;2024-01-07T02:41:45;15.05;;;6.57;;
21152;SDS011;10734;44.792;20.482;2024-01-07T02:44:12;13.73;;;6.13;;
21152;SDS011;10734;44.792;20.482;2024-01-07T02:46:39;13.05;;;5.90;;
21152;SDS011;10734;44.792;20.482;2024-01-07T02:52:04;15.48;;;6.20;;
21152;SDS011;10734;44.792;20.482;2024-01-07T02:54:31;12.80;;;5.40;;
21152;SDS011;10734;44.792;20.482;2024-01-07T02:56:57;11.32;;;6.15;;
21152;SDS011;10734;44.792;20.482;2024-01-07T02:59:24;12.13;;;5.57;;
21152;SDS011;10734;44.792;20.482;2024-01-07T03:01:50;15.18;;;5.30;;
21152;SDS011;10734;44.792;20.482;2024-01-07T03:04:17;11.15;;;5.97;;
21152;SDS011;10734;44.792;20.482;2024-01-07T03:06:44;13.77;;;5.40;;
21152;SDS011;10734;44.792;20.482;2024-01-07T03:09:11;10.50;;;5.70;;
21152;SDS011;10734;44.792;20.482;2024-01-07T03:11:41;10.80;;;5.80;;
21152;SDS011;10734;44.792;20.482;2024-01-07T03:14:09;12.63;;;5.60;;
21152;SDS011;10734;44.792;20.482;2024-01-07T03:16:35;9.70;;;5.35;;
21152;SDS011;10734;44.792;20.482;2024-01-07T03:22:33;13.85;;;5.70;;
21152;SDS011;10734;44.792;20.482;2024-01-07T03:25:00;14.18;;;5.03;;
21152;SDS011;10734;44.792;20.482;2024-01-07T03:27:27;9.45;;;5.32;;
21152;SDS011;10734;44.792;20.482;2024-01-07T03:29:53;12.32;;;4.97;;
21152;SDS011;10734;44.792;20.482;2024-01-07T03:32:20;12.63;;;5.25;;
21152;SDS011;10734;44.792;20.482;2024-01-07T03:38:08;13.20;;;5.25;;
21152;SDS011;10734;44.792;20.482;2024-01-07T03:40:35;11.23;;;4.82;;
21152;SDS011;10734;44.792;20.482;2024-01-07T03:43:01;11.68;;;5.22;;
21152;SDS011;10734;44.792;20.482;2024-01-07T03:45:28;8.32;;;4.75;;
21152;SDS011;10734;44.792;20.482;2024-01-07T03:47:55;11.60;;;5.00;;
21152;SDS011;10734;44.792;20.482;2024-01-07T03:53:19;8.82;;;4.78;;
21152;SDS011;10734;44.792;20.482;2024-01-07T03:55:46;9.68;;;4.78;;
21152;SDS011;10734;44.792;20.482;2024-01-07T03:58:13;8.55;;;5.00;;
21152;SDS011;10734;44.792;20.482;2024-01-07T04:00:39;11.57;;;6.35;;
21152;SDS011;10734;44.792;20.482;2024-01-07T04:03:06;11.73;;;5.38;;
21152;SDS011;10734;44.792;20.482;2024-01-07T04:09:05;11.35;;;4.90;;
21152;SDS011;10734;44.792;20.482;2024-01-07T04:11:31;10.15;;;5.32;;
21152;SDS011;10734;44.792;20.482;2024-01-07T04:13:58;15.10;;;5.45;;
21152;SDS011;10734;44.792;20.482;2024-01-07T04:16:25;11.15;;;5.45;;
21152;SDS011;10734;44.792;20.482;2024-01-07T04:18:51;13.50;;;6.00;;
21152;SDS011;10734;44.792;20.482;2024-01-07T04:24:11;11.80;;;5.87;;
21152;SDS011;10734;44.792;20.482;2024-01-07T04:26:37;12.27;;;5.38;;
21152;SDS011;10734;44.792;20.482;2024-01-07T04:29:04;12.55;;;4.95;;
21152;SDS011;10734;44.792;20.482;2024-01-07T04:31:31;15.98;;;8.25;;
21152;SDS011;10734;44.792;20.482;2024-01-07T04:33:57;14.70;;;6.05;;
21152;SDS011;10734;44.792;20.482;2024-01-07T04:43:27;11.47;;;5.70;;
21152;SDS011;10734;44.792;20.482;2024-01-07T04:45:54;12.15;;;5.28;;
21152;SDS011;10734;44.792;20.482;2024-01-07T04:48:21;18.50;;;8.77;;
21152;SDS011;10734;44.792;20.482;2024-01-07T04:50:48;19.77;;;9.43;;
21152;SDS011;10734;44.792;20.482;2024-01-07T04:53:15;21.58;;;10.15;;
21152;SDS011;10734;44.792;20.482;2024-01-07T04:55:41;23.80;;;10.57;;
21152;SDS011;10734;44.792;20.482;2024-01-07T04:58:08;17.30;;;8.45;;
21152;SDS011;10734;44.792;20.482;2024-01-07T05:00:34;15.52;;;6.68;;
21152;SDS011;10734;44.792;20.482;2024-01-07T05:03:01;18.73;;;9.00;;
21152;SDS011;10734;44.792;20.482;2024-01-07T05:05:28;12.25;;;5.78;;
21152;SDS011;10734;44.792;20.482;2024-01-07T05:07:55;14.95;;;7.53;;
21152;SDS011;10734;44.792;20.482;2024-01-07T05:10:21;12.15;;;4.95;;
21152;SDS011;10734;44.792;20.482;2024-01-07T05:12:48;10.68;;;4.25;;
21152;SDS011;10734;44.792;20.482;2024-01-07T05:15:14;9.40;;;4.10;;
21152;SDS011;10734;44.792;20.482;2024-01-07T05:17:41;9.70;;;4.72;;
21152;SDS011;10734;44.792;20.482;2024-01-07T05:20:08;9.68;;;4.53;;
21152;SDS011;10734;44.792;20.482;2024-01-07T05:22:36;7.40;;;3.97;;
21152;SDS011;10734;44.792;20.482;2024-01-07T05:25:03;8.45;;;4.65;;
21152;SDS011;10734;44.792;20.482;2024-01-07T05:27:30;10.02;;;4.45;;
21152;SDS011;10734;44.792;20.482;2024-01-07T05:29:57;8.77;;;4.25;;
21152;SDS011;10734;44.792;20.482;2024-01-07T05:32:23;11.60;;;4.22;;
21152;SDS011;10734;44.792;20.482;2024-01-07T05:38:12;11.85;;;4.57;;
21152;SDS011;10734;44.792;20.482;2024-01-07T05:40:39;8.18;;;3.90;;
21152;SDS011;10734;44.792;20.482;2024-01-07T05:43:05;10.75;;;4.40;;
21152;SDS011;10734;44.792;20.482;2024-01-07T05:45:32;11.52;;;4.45;;
21152;SDS011;10734;44.792;20.482;2024-01-07T05:47:59;10.65;;;4.55;;
21152;SDS011;10734;44.792;20.482;2024-01-07T05:50:26;14.95;;;5.47;;
21152;SDS011;10734;44.792;20.482;2024-01-07T05:52:52;12.32;;;4.90;;
21152;SDS011;10734;44.792;20.482;2024-01-07T05:55:19;10.60;;;5.05;;
21152;SDS011;10734;44.792;20.482;2024-01-07T05:57:45;12.48;;;6.15;;
21152;SDS011;10734;44.792;20.482;2024-01-07T06:00:12;17.95;;;5.93;;
21152;SDS011;10734;44.792;20.482;2024-01-07T06:02:39;12.57;;;5.70;;
21152;SDS011;10734;44.792;20.482;2024-01-07T06:08:38;11.30;;;5.45;;
21152;SDS011;10734;44.792;20.482;2024-01-07T06:11:05;12.73;;;5.50;;
21152;SDS011;10734;44.792;20.482;2024-01-07T06:13:31;16.17;;;8.57;;
21152;SDS011;10734;44.792;20.482;2024-01-07T06:15:58;11.73;;;5.93;;
21152;SDS011;10734;44.792;20.482;2024-01-07T06:18:24;13.48;;;6.63;;
21152;SDS011;10734;44.792;20.482;2024-01-07T06:24:13;15.80;;;6.78;;
21152;SDS011;10734;44.792;20.482;2024-01-07T06:26:40;12.30;;;6.18;;
21152;SDS011;10734;44.792;20.482;2024-01-07T06:29:07;15.18;;;6.95;;
21152;SDS011;10734;44.792;20.482;2024-01-07T06:31:36;16.20;;;5.97;;
21152;SDS011;10734;44.792;20.482;2024-01-07T06:34:03;15.15;;;6.50;;
21152;SDS011;10734;44.792;20.482;2024-01-07T06:40:01;14.27;;;6.43;;
21152;SDS011;10734;44.792;20.482;2024-01-07T06:42:28;12.38;;;6.20;;
21152;SDS011;10734;44.792;20.482;2024-01-07T06:44:55;16.27;;;7.35;;
21152;SDS011;10734;44.792;20.482;2024-01-07T06:47:22;13.82;;;6.63;;
21152;SDS011;10734;44.792;20.482;2024-01-07T06:49:49;15.05;;;7.93;;
21152;SDS011;10734;44.792;20.482;2024-01-07T06:52:16;22.08;;;7.65;;
21152;SDS011;10734;44.792;20.482;2024-01-07T06:54:42;13.23;;;7.18;;
21152;SDS011;10734;44.792;20.482;2024-01-07T06:57:09;28.77;;;7.72;;
21152;SDS011;10734;44.792;20.482;2024-01-07T06:59:36;20.33;;;8.23;;
21152;SDS011;10734;44.792;20.482;2024-01-07T07:02:02;18.83;;;9.25;;
21152;SDS011;10734;44.792;20.482;2024-01-07T07:04:29;20.23;;;9.00;;
21152;SDS011;10734;44.792;20.482;2024-01-07T07:06:56;17.50;;;7.75;;
21152;SDS011;10734;44.792;20.482;2024-01-07T07:09:23;14.88;;;7.05;;
21152;SDS011;10734;44.792;20.482;2024-01-07T07:11:50;18.92;;;8.82;;
21152;SDS011;10734;44.792;20.482;2024-01-07T07:14:17;20.83;;;8.52;;
21152;SDS011;10734;44.792;20.482;2024-01-07T07:16:43;20.48;;;8.10;;
21152;SDS011;10734;44.792;20.482;2024-01-07T07:19:10;16.58;;;7.95;;
21152;SDS011;10734;44.792;20.482;2024-01-07T07:25:02;22.43;;;9.53;;
21152;SDS011;10734;44.792;20.482;2024-01-07T07:27:29;18.77;;;8.63;;
21152;SDS011;10734;44.792;20.482;2024-01-07T07:29:56;18.70;;;9.52;;
21152;SDS011;10734;44.792;20.482;2024-01-07T07:32:23;19.83;;;10.50;;
21152;SDS011;10734;44.792;20.482;2024-01-07T07:34:50;18.40;;;9.32;;
21152;SDS011;10734;44.792;20.482;2024-01-07T07:37:16;20.88;;;9.73;;
21152;SDS011;10734;44.792;20.482;2024-01-07T07:39:46;21.85;;;9.80;;
21152;SDS011;10734;44.792;20.482;2024-01-07T07:42:13;21.40;;;9.30;;
21152;SDS011;10734;44.792;20.482;2024-01-07T07:44:40;20.38;;;9.38;;
21152;SDS011;10734;44.792;20.482;2024-01-07T07:47:06;18.95;;;9.60;;
21152;SDS011;10734;44.792;20.482;2024-01-07T07:49:34;22.42;;;10.07;;
21152;SDS011;10734;44.792;20.482;2024-01-07T07:52:02;24.50;;;11.75;;
21152;SDS011;10734;44.792;20.482;2024-01-07T07:54:28;22.15;;;11.00;;
21152;SDS011;10734;44.792;20.482;2024-01-07T07:56:58;18.40;;;9.85;;
21152;SDS011;10734;44.792;20.482;2024-01-07T07:59:25;23.35;;;12.75;;
21152;SDS011;10734;44.792;20.482;2024-01-07T08:01:52;22.40;;;12.10;;
21152;SDS011;10734;44.792;20.482;2024-01-07T08:04:18;23.92;;;12.98;;
21152;SDS011;10734;44.792;20.482;2024-01-07T08:09:32;23.73;;;11.13;;
21152;SDS011;10734;44.792;20.482;2024-01-07T08:11:59;23.10;;;11.55;;
21152;SDS011;10734;44.792;20.482;2024-01-07T08:14:26;23.35;;;11.68;;
21152;SDS011;10734;44.792;20.482;2024-01-07T08:16:53;21.52;;;10.38;;
21152;SDS011;10734;44.792;20.482;2024-01-07T08:19:19;20.13;;;10.25;;
21152;SDS011;10734;44.792;20.482;2024-01-07T08:28:47;26.17;;;11.30;;
21152;SDS011;10734;44.792;20.482;2024-01-07T08:31:13;24.48;;;10.25;;
21152;SDS011;10734;44.792;20.482;2024-01-07T08:33:40;21.50;;;9.88;;
21152;SDS011;10734;44.792;20.482;2024-01-07T08:46:14;24.63;;;11.07;;
21152;SDS011;10734;44.792;20.482;2024-01-07T08:48:40;24.17;;;12.05;;
21152;SDS011;10734;44.792;20.482;2024-01-07T08:54:39;19.50;;;11.17;;
21152;SDS011;10734;44.792;20.482;2024-01-07T08:57:06;18.05;;;10.75;;
21152;SDS011;10734;44.792;20.482;2024-01-07T08:59:33;22.05;;;11.38;;
21152;SDS011;10734;44.792;20.482;2024-01-07T09:01:59;26.90;;;11.13;;
21152;SDS011;10734;44.792;20.482;2024-01-07T09:04:26;21.60;;;10.95;;
21152;SDS011;10734;44.792;20.482;2024-01-07T09:06:53;20.92;;;10.70;;
21152;SDS011;10734;44.792;20.482;2024-01-07T09:09:20;24.38;;;10.88;;
21152;SDS011;10734;44.792;20.482;2024-01-07T09:11:46;25.13;;;11.88;;
21152;SDS011;10734;44.792;20.482;2024-01-07T09:14:13;22.13;;;10.88;;
21152;SDS011;10734;44.792;20.482;2024-01-07T09:16:41;22.63;;;12.65;;
21152;SDS011;10734;44.792;20.482;2024-01-07T09:19:07;24.95;;;12.80;;
21152;SDS011;10734;44.792;20.482;2024-01-07T09:21:55;18.80;;;11.82;;
21152;SDS011;10734;44.792;20.482;2024-01-07T09:24:21;21.50;;;11.75;;
21152;SDS011;10734;44.792;20.482;2024-01-07T09:26:48;25.38;;;12.15;;
21152;SDS011;10734;44.792;20.482;2024-01-07T09:29:14;23.27;;;12.25;;
21152;SDS011;10734;44.792;20.482;2024-01-07T09:31:41;20.48;;;11.48;;
21152;SDS011;10734;44.792;20.482;2024-01-07T09:34:08;27.48;;;13.32;;
21152;SDS011;10734;44.792;20.482;2024-01-07T09:40:07;29.98;;;15.68;;
21152;SDS011;10734;44.792;20.482;2024-01-07T09:42:34;44.63;;;22.75;;
21152;SDS011;10734;44.792;20.482;2024-01-07T09:45:03;46.65;;;24.33;;
21152;SDS011;10734;44.792;20.482;2024-01-07T09:47:31;36.35;;;19.60;;
21152;SDS011;10734;44.792;20.482;2024-01-07T09:49:58;29.17;;;15.95;;
21152;SDS011;10734;44.792;20.482;2024-01-07T09:58:07;27.90;;;14.55;;
21152;SDS011;10734;44.792;20.482;2024-01-07T10:00:34;29.52;;;13.65;;
21152;SDS011;10734;44.792;20.482;2024-01-07T10:03:02;29.83;;;14.77;;
21152;SDS011;10734;44.792;20.482;2024-01-07T10:05:29;28.77;;;15.05;;
21152;SDS011;10734;44.792;20.482;2024-01-07T10:07:56;28.67;;;15.05;;
21152;SDS011;10734;44.792;20.482;2024-01-07T10:10:24;26.20;;;15.20;;
21152;SDS011;10734;44.792;20.482;2024-01-07T10:12:50;31.15;;;15.82;;
21152;SDS011;10734;44.792;20.482;2024-01-07T10:15:19;32.55;;;16.77;;
21152;SDS011;10734;44.792;20.482;2024-01-07T10:17:46;27.45;;;15.60;;
21152;SDS011;10734;44.792;20.482;2024-01-07T10:20:16;34.13;;;19.13;;
21152;SDS011;10734;44.792;20.482;2024-01-07T10:22:46;30.50;;;15.93;;
21152;SDS011;10734;44.792;20.482;2024-01-07T10:25:13;37.63;;;18.67;;
21152;SDS011;10734;44.792;20.482;2024-01-07T10:27:41;34.58;;;18.63;;
21152;SDS011;10734;44.792;20.482;2024-01-07T10:30:07;37.03;;;17.45;;
21152;SDS011;10734;44.792;20.482;2024-01-07T10:32:37;28.90;;;15.07;;
21152;SDS011;10734;44.792;20.482;2024-01-07T10:35:07;29.77;;;15.32;;
21152;SDS011;10734;44.792;20.482;2024-01-07T10:37:38;28.42;;;16.13;;
21152;SDS011;10734;44.792;20.482;2024-01-07T10:40:06;30.33;;;16.55;;
21152;SDS011;10734;44.792;20.482;2024-01-07T10:42:33;32.05;;;16.05;;
21152;SDS011;10734;44.792;20.482;2024-01-07T10:45:00;29.98;;;14.73;;
21152;SDS011;10734;44.792;20.482;2024-01-07T10:47:29;31.98;;;16.60;;
21152;SDS011;10734;44.792;20.482;2024-01-07T10:49:56;28.75;;;14.80;;
21152;SDS011;10734;44.792;20.482;2024-01-07T10:55:11;30.83;;;16.60;;
21152;SDS011;10734;44.792;20.482;2024-01-07T10:57:47;29.52;;;17.40;;
21152;SDS011;10734;44.792;20.482;2024-01-07T11:00:15;33.05;;;16.77;;
21152;SDS011;10734;44.792;20.482;2024-01-07T11:02:51;37.03;;;19.55;;
21152;SDS011;10734;44.792;20.482;2024-01-07T11:08:11;38.70;;;21.77;;
21152;SDS011;10734;44.792;20.482;2024-01-07T11:10:41;39.25;;;21.08;;
21152;SDS011;10734;44.792;20.482;2024-01-07T11:16:04;25.02;;;13.55;;
21152;SDS011;10734;44.792;20.482;2024-01-07T11:18:31;26.25;;;12.23;;
21152;SDS011;10734;44.792;20.482;2024-01-07T11:21:00;27.13;;;12.23;;
21152;SDS011;10734;44.792;20.482;2024-01-07T11:23:31;21.60;;;12.05;;
21152;SDS011;10734;44.792;20.482;2024-01-07T11:26:04;21.35;;;11.23;;
21152;SDS011;10734;44.792;20.482;2024-01-07T11:31:17;16.58;;;9.75;;
21152;SDS011;10734;44.792;20.482;2024-01-07T11:33:45;23.35;;;12.85;;
21152;SDS011;10734;44.792;20.482;2024-01-07T11:36:13;21.27;;;10.60;;
21152;SDS011;10734;44.792;20.482;2024-01-07T11:38:49;26.52;;;10.70;;
21152;SDS011;10734;44.792;20.482;2024-01-07T11:41:20;16.98;;;9.65;;
21152;SDS011;10734;44.792;20.482;2024-01-07T11:43:53;20.15;;;11.57;;
21152;SDS011;10734;44.792;20.482;2024-01-07T11:46:21;20.08;;;11.13;;
21152;SDS011;10734;44.792;20.482;2024-01-07T11:48:48;19.88;;;10.13;;
21152;SDS011;10734;44.792;20.482;2024-01-07T11:51:15;24.15;;;12.15;;
21152;SDS011;10734;44.792;20.482;2024-01-07T11:53:44;22.10;;;11.57;;
21152;SDS011;10734;44.792;20.482;2024-01-07T11:56:12;22.27;;;11.52;;
21152;SDS011;10734;44.792;20.482;2024-01-07T11:58:39;16.75;;;10.20;;
21152;SDS011;10734;44.792;20.482;2024-01-07T12:01:06;17.48;;;9.63;;
21152;SDS011;10734;44.792;20.482;2024-01-07T12:03:34;19.15;;;10.70;;
21152;SDS011;10734;44.792;20.482;2024-01-07T12:06:01;19.90;;;11.45;;
21152;SDS011;10734;44.792;20.482;2024-01-07T12:11:50;18.92;;;8.77;;
21152;SDS011;10734;44.792;20.482;2024-01-07T12:14:17;18.65;;;9.95;;
21152;SDS011;10734;44.792;20.482;2024-01-07T12:16:44;16.45;;;9.20;;
21152;SDS011;10734;44.792;20.482;2024-01-07T12:19:11;20.05;;;9.52;;
21152;SDS011;10734;44.792;20.482;2024-01-07T12:25:05;22.08;;;11.90;;
21152;SDS011;10734;44.792;20.482;2024-01-07T12:27:32;21.55;;;12.60;;
21152;SDS011;10734;44.792;20.482;2024-01-07T12:30:00;19.85;;;11.15;;
21152;SDS011;10734;44.792;20.482;2024-01-07T12:32:27;24.60;;;12.55;;
21152;SDS011;10734;44.792;20.482;2024-01-07T12:34:56;23.55;;;10.35;;
21152;SDS011;10734;44.792;20.482;2024-01-07T12:41:10;21.73;;;10.70;;
21152;SDS011;10734;44.792;20.482;2024-01-07T12:43:37;22.25;;;10.98;;
21152;SDS011;10734;44.792;20.482;2024-01-07T12:46:03;22.05;;;11.85;;
21152;SDS011;10734;44.792;20.482;2024-01-07T12:48:32;23.45;;;13.73;;
21152;SDS011;10734;44.792;20.482;2024-01-07T12:51:00;25.33;;;12.80;;
21152;SDS011;10734;44.792;20.482;2024-01-07T12:53:26;26.30;;;12.63;;
21152;SDS011;10734;44.792;20.482;2024-01-07T12:55:53;26.13;;;12.93;;
21152;SDS011;10734;44.792;20.482;2024-01-07T12:58:20;26.30;;;13.52;;
21152;SDS011;10734;44.792;20.482;2024-01-07T13:00:47;30.23;;;15.05;;
21152;SDS011;10734;44.792;20.482;2024-01-07T13:03:14;25.45;;;13.60;;
21152;SDS011;10734;44.792;20.482;2024-01-07T13:05:44;26.63;;;15.20;;
21152;SDS011;10734;44.792;20.482;2024-01-07T13:08:12;36.70;;;15.23;;
21152;SDS011;10734;44.792;20.482;2024-01-07T13:10:42;29.70;;;15.63;;
21152;SDS011;10734;44.792;20.482;2024-01-07T13:13:08;31.73;;;15.45;;
21152;SDS011;10734;44.792;20.482;2024-01-07T13:15:41;33.88;;;15.32;;
21152;SDS011;10734;44.792;20.482;2024-01-07T13:18:09;22.52;;;10.65;;
21152;SDS011;10734;44.792;20.482;2024-01-07T13:20:38;21.45;;;11.40;;
21152;SDS011;10734;44.792;20.482;2024-01-07T13:23:26;23.50;;;10.48;;
21152;SDS011;10734;44.792;20.482;2024-01-07T13:25:54;22.27;;;10.27;;
21152;SDS011;10734;44.792;20.482;2024-01-07T13:28:22;24.30;;;10.40;;
21152;SDS011;10734;44.792;20.482;2024-01-07T13:30:49;23.48;;;9.77;;
21152;SDS011;10734;44.792;20.482;2024-01-07T13:33:16;18.40;;;9.20;;
21152;SDS011;10734;44.792;20.482;2024-01-07T13:35:44;25.88;;;10.82;;
21152;SDS011;10734;44.792;20.482;2024-01-07T13:41:42;14.27;;;6.97;;
21152;SDS011;10734;44.792;20.482;2024-01-07T13:44:10;13.90;;;6.22;;
21152;SDS011;10734;44.792;20.482;2024-01-07T13:46:47;18.08;;;7.97;;
21152;SDS011;10734;44.792;20.482;2024-01-07T13:49:13;13.15;;;7.97;;
21152;SDS011;10734;44.792;20.482;2024-01-07T13:51:40;13.38;;;7.95;;
21152;SDS011;10734;44.792;20.482;2024-01-07T13:57:06;15.88;;;7.13;;
21152;SDS011;10734;44.792;20.482;2024-01-07T13:59:33;13.98;;;6.78;;
21152;SDS011;10734;44.792;20.482;2024-01-07T14:02:00;17.15;;;7.03;;
21152;SDS011;10734;44.792;20.482;2024-01-07T14:04:26;12.15;;;7.55;;
21152;SDS011;10734;44.792;20.482;2024-01-07T14:06:57;12.18;;;7.60;;
21152;SDS011;10734;44.792;20.482;2024-01-07T14:12:56;15.53;;;9.00;;
21152;SDS011;10734;44.792;20.482;2024-01-07T14:15:22;18.63;;;9.55;;
21152;SDS011;10734;44.792;20.482;2024-01-07T14:17:49;15.80;;;9.82;;
21152;SDS011;10734;44.792;20.482;2024-01-07T14:20:15;16.77;;;9.68;;
21152;SDS011;10734;44.792;20.482;2024-01-07T14:22:42;19.60;;;10.85;;
21152;SDS011;10734;44.792;20.482;2024-01-07T14:25:09;20.98;;;9.63;;
21152;SDS011;10734;44.792;20.482;2024-01-07T14:27:35;19.92;;;9.50;;
21152;SDS011;10734;44.792;20.482;2024-01-07T14:30:02;20.92;;;10.15;;
21152;SDS011;10734;44.792;20.482;2024-01-07T14:32:29;16.48;;;8.90;;
21152;SDS011;10734;44.792;20.482;2024-01-07T14:34:56;17.92;;;11.45;;
21152;SDS011;10734;44.792;20.482;2024-01-07T14:37:26;19.85;;;11.55;;
21152;SDS011;10734;44.792;20.482;2024-01-07T14:39:54;18.50;;;9.60;;
21152;SDS011;10734;44.792;20.482;2024-01-07T14:42:21;22.13;;;12.40;;
21152;SDS011;10734;44.792;20.482;2024-01-07T14:44:48;20.15;;;12.55;;
21152;SDS011;10734;44.792;20.482;2024-01-07T14:47:17;20.95;;;12.15;;
21152;SDS011;10734;44.792;20.482;2024-01-07T14:49:44;22.65;;;12.18;;
21152;SDS011;10734;44.792;20.482;2024-01-07T14:52:11;19.02;;;12.23;;
21152;SDS011;10734;44.792;20.482;2024-01-07T14:54:38;25.83;;;11.90;;
21152;SDS011;10734;44.792;20.482;2024-01-07T14:57:04;23.98;;;12.98;;
21152;SDS011;10734;44.792;20.482;2024-01-07T14:59:33;24.05;;;14.65;;
21152;SDS011;10734;44.792;20.482;2024-01-07T15:02:01;23.63;;;14.57;;
21152;SDS011;10734;44.792;20.482;2024-01-07T15:04:28;29.48;;;15.98;;
21152;SDS011;10734;44.792;20.482;2024-01-07T15:06:55;27.13;;;17.13;;
21152;SDS011;10734;44.792;20.482;2024-01-07T15:09:22;29.38;;;18.58;;
21152;SDS011;10734;44.792;20.482;2024-01-07T15:11:49;35.30;;;18.88;;
21152;SDS011;10734;44.792;20.482;2024-01-07T15:14:16;34.53;;;19.45;;
21152;SDS011;10734;44.792;20.482;2024-01-07T15:16:44;35.72;;;19.20;;
21152;SDS011;10734;44.792;20.482;2024-01-07T15:19:12;36.45;;;21.35;;
21152;SDS011;10734;44.792;20.482;2024-01-07T15:21:39;28.98;;;18.80;;
21152;SDS011;10734;44.792;20.482;2024-01-07T15:24:05;29.77;;;18.60;;
21152;SDS011;10734;44.792;20.482;2024-01-07T15:26:32;29.63;;;19.17;;
21152;SDS011;10734;44.792;20.482;2024-01-07T15:29:01;36.47;;;19.10;;
21152;SDS011;10734;44.792;20.482;2024-01-07T15:31:28;28.77;;;18.48;;
21152;SDS011;10734;44.792;20.482;2024-01-07T15:33:55;32.58;;;20.27;;
21152;SDS011;10734;44.792;20.482;2024-01-07T15:36:22;34.35;;;21.08;;
21152;SDS011;10734;44.792;20.482;2024-01-07T15:38:48;31.63;;;20.85;;
21152;SDS011;10734;44.792;20.482;2024-01-07T15:41:15;33.75;;;20.85;;
21152;SDS011;10734;44.792;20.482;2024-01-07T15:43:42;30.92;;;20.25;;
21152;SDS011;10734;44.792;20.482;2024-01-07T15:46:09;31.00;;;18.83;;
21152;SDS011;10734;44.792;20.482;2024-01-07T15:48:36;32.25;;;21.42;;
21152;SDS011;10734;44.792;20.482;2024-01-07T15:51:02;30.67;;;20.60;;
21152;SDS011;10734;44.792;20.482;2024-01-07T15:56:33;31.58;;;18.67;;
21152;SDS011;10734;44.792;20.482;2024-01-07T15:59:00;25.00;;;17.38;;
21152;SDS011;10734;44.792;20.482;2024-01-07T16:01:26;25.58;;;17.23;;
21152;SDS011;10734;44.792;20.482;2024-01-07T16:03:53;27.92;;;18.42;;
21152;SDS011;10734;44.792;20.482;2024-01-07T16:06:20;22.33;;;16.27;;
21152;SDS011;10734;44.792;20.482;2024-01-07T16:08:47;26.50;;;16.48;;
21152;SDS011;10734;44.792;20.482;2024-01-07T16:11:14;29.95;;;18.00;;
21152;SDS011;10734;44.792;20.482;2024-01-07T16:13:43;25.92;;;16.70;;
21152;SDS011;10734;44.792;20.482;2024-01-07T16:16:10;23.30;;;15.90;;
21152;SDS011;10734;44.792;20.482;2024-01-07T16:18:37;26.77;;;18.30;;
21152;SDS011;10734;44.792;20.482;2024-01-07T16:21:03;21.35;;;15.90;;